createdAt,value
2022-09-13T00:03:23.602Z,1000.56
2022-09-13T00:08:27.727Z,1000.73
2022-09-13T00:13:31.927Z,1000.71
2022-09-13T00:18:36.053Z,1000.51
2022-09-13T00:23:40.249Z,1000.29
2022-09-13T00:28:42.618Z,1000.35
2022-09-13T00:33:46.641Z,1000.31
2022-09-13T00:38:50.876Z,1000.20
2022-09-13T00:43:54.980Z,1000.07
2022-09-13T00:48:59.148Z,1000.17
2022-09-13T00:54:03.284Z,1000.13
2022-09-13T00:59:07.453Z,1000.20
2022-09-13T01:04:12.555Z,1000.11
2022-09-13T01:09:13.886Z,1000.14
2022-09-13T01:14:18.014Z,1000.17
2022-09-13T01:19:22.196Z,1000.10
2022-09-13T01:24:26.581Z,999.94
2022-09-13T01:29:30.523Z,999.96
2022-09-13T01:34:34.648Z,999.97
2022-09-13T01:39:38.840Z,999.94
2022-09-13T01:44:42.995Z,999.91
2022-09-13T01:49:47.134Z,999.84
2022-09-13T01:54:51.288Z,999.84
2022-09-13T01:59:55.479Z,999.87
2022-09-13T02:04:59.609Z,999.90
2022-09-13T02:10:03.825Z,999.86
2022-09-13T02:15:06.064Z,999.85
2022-09-13T02:20:10.197Z,999.87
2022-09-13T02:25:14.377Z,999.85
2022-09-13T02:30:18.560Z,999.93
2022-09-13T02:35:22.720Z,999.89
2022-09-13T02:40:26.863Z,999.83
2022-09-13T02:45:31.078Z,999.82
2022-09-13T02:50:35.136Z,999.71
2022-09-13T02:55:39.336Z,999.70
2022-09-13T03:00:43.486Z,999.71
2022-09-13T03:05:47.666Z,999.73
2022-09-13T03:10:51.785Z,999.72
2022-09-13T03:15:55.983Z,999.80
2022-09-13T03:21:00.131Z,999.80
2022-09-13T03:26:04.283Z,999.77
2022-09-13T03:31:08.436Z,999.88
2022-09-13T03:36:12.610Z,999.93
2022-09-13T03:41:16.775Z,999.88
2022-09-13T03:46:20.944Z,999.85
2022-09-13T03:51:25.100Z,999.74
2022-09-13T03:56:29.237Z,999.82
2022-09-13T04:01:31.597Z,999.75
2022-09-13T04:06:35.669Z,999.62
2022-09-13T04:11:37.936Z,999.64
2022-09-13T04:16:42.144Z,999.67
2022-09-13T04:21:46.239Z,999.61
2022-09-13T04:26:48.513Z,999.57
2022-09-13T04:31:52.722Z,999.50
2022-09-13T04:36:56.870Z,999.54
2022-09-13T04:42:01.037Z,999.68
2022-09-13T04:47:05.507Z,999.73
2022-09-13T04:52:09.342Z,999.78
2022-09-13T04:57:13.494Z,999.78
2022-09-13T05:02:17.696Z,999.86
2022-09-13T05:07:21.821Z,999.80
2022-09-13T05:12:25.955Z,999.88
2022-09-13T05:17:30.096Z,999.80
2022-09-13T05:22:34.294Z,999.72
2022-09-13T05:27:38.457Z,999.76
2022-09-13T05:32:42.589Z,999.76
2022-09-13T05:37:46.758Z,999.80
2022-09-13T05:42:50.897Z,999.71
2022-09-13T05:47:55.095Z,999.80
2022-09-13T05:52:59.235Z,999.92
2022-09-13T05:58:03.463Z,999.89
2022-09-13T06:03:07.550Z,1000.07
2022-09-13T06:08:11.716Z,1000.01
2022-09-13T06:13:13.988Z,999.96
2022-09-13T06:18:18.139Z,1000.02
2022-09-13T06:23:20.409Z,999.93
2022-09-13T06:28:24.553Z,999.98
2022-09-13T06:33:28.723Z,999.89
2022-09-13T06:38:32.915Z,999.92
2022-09-13T06:43:37.044Z,999.96
2022-09-13T06:48:41.233Z,999.88
2022-09-13T06:53:45.382Z,999.99
2022-09-13T06:58:49.627Z,1000.06
2022-09-13T07:03:53.692Z,1000.02
2022-09-13T07:08:57.856Z,1000.06
2022-09-13T07:14:02.006Z,1000.04
2022-09-13T07:19:06.175Z,1000.03
2022-09-13T07:24:10.352Z,999.95
2022-09-13T07:29:14.482Z,1000.01
2022-09-13T07:34:18.633Z,1000.03
2022-09-13T07:39:23.275Z,999.98
2022-09-13T07:44:26.973Z,999.99
2022-09-13T07:54:35.280Z,1000.02
2022-09-13T07:59:39.454Z,999.99
2022-09-13T08:09:47.778Z,1000.15
2022-09-13T08:14:51.915Z,1000.13
2022-09-13T08:19:54.209Z,1000.33
2022-09-13T08:24:58.371Z,1000.17
2022-09-13T08:30:00.646Z,1000.28
2022-09-13T08:35:04.779Z,1000.34
2022-09-13T08:40:09.010Z,1000.29
2022-09-13T08:45:13.132Z,1000.18
2022-09-13T08:50:17.791Z,1000.22
2022-09-13T08:55:21.418Z,1000.20
2022-09-13T09:00:25.764Z,1000.14
2022-09-13T09:05:29.744Z,1000.12
2022-09-13T09:10:33.894Z,1000.07
2022-09-13T09:15:38.073Z,1000.12
2022-09-13T09:20:42.210Z,1000.15
2022-09-13T09:25:46.342Z,1000.14
2022-09-13T09:30:50.593Z,1000.05
2022-09-13T09:35:54.680Z,1000.14
2022-09-13T09:40:58.866Z,1000.00
2022-09-13T09:46:03.078Z,999.98
2022-09-13T09:51:07.190Z,1000.02
2022-09-13T09:56:11.327Z,999.96
2022-09-13T10:01:15.517Z,999.95
2022-09-13T10:06:19.634Z,999.87
2022-09-13T10:11:23.786Z,999.96
2022-09-13T10:16:26.126Z,999.92
2022-09-13T10:21:30.230Z,999.98
2022-09-13T10:26:34.372Z,999.99
2022-09-13T10:31:38.513Z,999.97
2022-09-13T10:36:52.234Z,1000.03
2022-09-13T10:41:46.845Z,999.94
2022-09-13T10:46:51.001Z,999.85
2022-09-13T10:51:55.236Z,999.84
2022-09-13T10:56:59.323Z,999.82
2022-09-13T11:02:03.514Z,999.84
2022-09-13T11:07:07.653Z,999.83
2022-09-13T11:12:11.803Z,999.73
2022-09-13T11:17:16.009Z,999.69
2022-09-13T11:22:20.199Z,999.64
2022-09-13T11:27:24.281Z,999.64
2022-09-13T11:32:28.409Z,999.57
2022-09-13T11:37:32.591Z,999.55
2022-09-13T11:42:36.744Z,999.53
2022-09-13T11:47:40.923Z,999.41
2022-09-13T11:52:45.062Z,999.45
2022-09-13T11:57:50.270Z,999.29
2022-09-13T12:02:51.574Z,999.24
2022-09-13T12:07:55.645Z,999.24
2022-09-13T12:12:58.030Z,999.27
2022-09-13T12:18:02.065Z,999.30
2022-09-13T12:23:04.340Z,999.18
2022-09-13T12:28:08.511Z,999.22
2022-09-13T12:33:12.653Z,999.10
2022-09-13T12:38:16.852Z,999.11
2022-09-13T12:43:20.973Z,999.08
2022-09-13T12:48:25.141Z,999.12
2022-09-13T12:53:29.356Z,999.06
2022-09-13T12:58:33.477Z,999.05
2022-09-13T13:03:37.727Z,999.01
2022-09-13T13:08:41.798Z,999.01
2022-09-13T13:13:45.952Z,998.98
2022-09-13T13:18:50.118Z,999.02
2022-09-13T13:23:54.254Z,999.01
2022-09-13T13:28:58.391Z,999.04
2022-09-13T13:34:02.592Z,999.02
2022-09-13T13:39:06.716Z,999.13
2022-09-13T13:44:10.884Z,999.02
2022-09-13T13:49:15.093Z,998.98
2022-09-13T13:54:19.216Z,998.88
2022-09-13T13:59:23.352Z,998.92
2022-09-13T14:04:27.560Z,998.78
2022-09-13T14:09:33.209Z,998.71
2022-09-13T14:14:33.945Z,998.75
2022-09-13T14:19:38.132Z,998.77
2022-09-13T14:24:42.408Z,998.75
2022-09-13T14:29:46.423Z,998.75
2022-09-13T14:34:56.604Z,998.73
2022-09-13T14:39:54.807Z,998.70
2022-09-13T14:44:58.906Z,998.71
2022-09-13T14:50:03.090Z,998.62
2022-09-13T14:55:07.287Z,998.68
2022-09-13T15:00:11.399Z,998.64
2022-09-13T15:05:15.529Z,998.61
2022-09-13T15:10:19.722Z,998.61
2022-09-13T15:15:23.878Z,998.57
2022-09-13T15:20:28.061Z,998.50
2022-09-13T15:25:32.197Z,998.44
2022-09-13T15:30:36.321Z,998.43
2022-09-13T15:35:40.561Z,998.44
2022-09-13T15:40:44.646Z,998.47
2022-09-13T15:45:48.846Z,998.32
2022-09-13T15:50:52.996Z,998.31
2022-09-13T15:55:55.311Z,998.44
2022-09-13T16:00:59.437Z,998.46
2022-09-13T16:06:03.580Z,998.37
2022-09-13T16:11:07.751Z,998.32
2022-09-13T16:16:12.002Z,998.27
2022-09-13T16:21:16.071Z,998.26
2022-09-13T16:26:20.173Z,998.32
2022-09-13T16:31:24.392Z,998.36
2022-09-13T16:36:28.515Z,998.39
2022-09-13T16:41:32.714Z,998.42
2022-09-13T16:46:36.896Z,998.31
2022-09-13T16:51:41.003Z,998.29
2022-09-13T16:56:45.127Z,998.36
2022-09-13T17:01:49.472Z,998.43
2022-09-13T17:06:53.488Z,998.47
2022-09-13T17:11:57.633Z,998.44
2022-09-13T17:17:01.808Z,998.50
2022-09-13T17:22:05.953Z,998.46
2022-09-13T17:27:10.113Z,998.46
2022-09-13T17:32:14.243Z,998.47
2022-09-13T17:37:18.455Z,998.43
2022-09-13T17:42:23.348Z,998.46
2022-09-13T17:47:24.824Z,998.47
2022-09-13T17:52:29.625Z,998.37
2022-09-13T18:02:35.485Z,998.39
2022-09-13T18:07:37.815Z,998.48
2022-09-13T18:12:41.837Z,998.52
2022-09-13T18:17:46.041Z,998.55
2022-09-13T18:22:50.187Z,998.50
2022-09-13T18:27:54.380Z,998.53
2022-09-13T18:32:58.508Z,998.53
2022-09-13T18:38:02.703Z,998.56
2022-09-13T18:43:06.823Z,998.52
2022-09-13T18:48:11.009Z,998.60
2022-09-13T18:53:15.141Z,998.64
2022-09-13T18:58:19.298Z,998.66
2022-09-13T19:03:23.676Z,998.65
2022-09-13T19:08:27.668Z,998.71
2022-09-13T19:13:31.780Z,998.66
2022-09-13T19:18:35.970Z,998.63
2022-09-13T19:23:58.450Z,998.64
2022-09-13T19:28:44.249Z,998.65
2022-09-13T19:33:48.469Z,998.66
2022-09-13T19:38:52.588Z,998.68
2022-09-13T19:43:54.828Z,998.61
2022-09-13T19:48:58.983Z,998.64
2022-09-13T19:54:01.260Z,998.70
2022-09-13T19:59:05.442Z,998.62
2022-09-13T20:04:09.577Z,998.65
2022-09-13T20:09:11.842Z,998.67
2022-09-13T20:14:15.992Z,998.65
2022-09-13T20:19:39.366Z,998.73
2022-09-13T20:24:24.364Z,998.59
2022-09-13T20:29:28.508Z,998.44
2022-09-13T20:34:32.662Z,998.48
2022-09-13T20:39:36.841Z,998.51
2022-09-13T20:44:40.987Z,998.52
2022-09-13T20:49:45.102Z,998.47
2022-09-13T20:54:49.285Z,998.50
2022-09-13T20:59:53.457Z,998.45
2022-09-13T21:04:57.596Z,998.44
2022-09-13T21:10:01.802Z,998.47
2022-09-13T21:15:05.907Z,998.54
2022-09-13T21:20:10.069Z,998.66
2022-09-13T21:25:14.262Z,998.67
2022-09-13T21:30:18.500Z,998.69
2022-09-13T21:35:22.555Z,998.67
2022-09-13T21:40:26.779Z,998.68
2022-09-13T21:45:30.900Z,998.65
2022-09-13T21:50:35.028Z,998.56
2022-09-13T21:55:37.327Z,998.62
2022-09-13T22:00:41.513Z,998.50
2022-09-13T22:05:43.762Z,998.67
2022-09-13T22:10:47.851Z,998.68
2022-09-13T22:15:52.037Z,998.72
2022-09-13T22:20:56.220Z,998.72
2022-09-13T22:26:00.362Z,998.70
2022-09-13T22:31:04.680Z,998.68
2022-09-13T22:36:08.677Z,998.50
2022-09-13T22:41:12.866Z,998.37
2022-09-13T22:46:17.103Z,998.56
2022-09-13T22:51:21.146Z,998.48
2022-09-13T22:56:25.315Z,998.58
2022-09-13T23:01:29.609Z,998.47
2022-09-13T23:06:33.624Z,998.41
2022-09-13T23:11:37.829Z,998.35
2022-09-13T23:16:42.015Z,998.38
2022-09-13T23:21:46.125Z,998.25
2022-09-13T23:26:50.296Z,998.34
2022-09-13T23:31:54.496Z,998.34
2022-09-13T23:36:58.586Z,998.14
2022-09-13T23:42:02.776Z,998.12
2022-09-13T23:47:06.934Z,998.10
2022-09-13T23:52:09.186Z,998.15
2022-09-13T23:57:13.346Z,998.12
